createdAt,value
2023-04-11T00:00:27.192Z,3.63
2023-04-11T00:02:59.846Z,3.93
2023-04-11T00:05:28.514Z,4.30
2023-04-11T00:07:58.279Z,4.03
2023-04-11T00:10:26.632Z,3.30
2023-04-11T00:12:56.726Z,4.27
2023-04-11T00:15:26.885Z,5.07
2023-04-11T00:17:57.832Z,3.77
2023-04-11T00:20:26.268Z,3.50
2023-04-11T00:22:55.102Z,3.70
2023-04-11T00:25:24.967Z,4.10
2023-04-11T00:27:53.464Z,4.27
2023-04-11T00:30:21.847Z,4.27
2023-04-11T00:32:50.480Z,3.90
2023-04-11T00:35:19.006Z,5.37
2023-04-11T00:37:49.450Z,4.27
2023-04-11T00:40:18.929Z,4.20
2023-04-11T00:42:48.669Z,4.57
2023-04-11T00:45:17.045Z,4.27
2023-04-11T00:47:45.559Z,4.53
2023-04-11T00:50:14.251Z,4.73
2023-04-11T00:52:42.643Z,3.60
2023-04-11T00:55:11.418Z,4.93
2023-04-11T00:57:41.941Z,4.37
2023-04-11T01:00:12.478Z,3.67
2023-04-11T01:02:43.236Z,2.67
2023-04-11T01:05:12.689Z,2.70
2023-04-11T01:07:43.055Z,2.90
2023-04-11T01:10:11.708Z,2.73
2023-04-11T01:12:40.176Z,2.17
2023-04-11T01:15:08.776Z,2.00
2023-04-11T01:17:38.607Z,2.10
2023-04-11T01:20:08.839Z,2.43
2023-04-11T01:22:37.377Z,2.57
2023-04-11T01:25:07.617Z,2.60
2023-04-11T01:27:37.831Z,2.10
2023-04-11T01:30:06.965Z,2.10
2023-04-11T01:32:35.378Z,2.53
2023-04-11T01:35:03.805Z,2.80
2023-04-11T01:37:32.179Z,1.70
2023-04-11T01:40:00.662Z,2.73
2023-04-11T01:42:30.509Z,2.47
2023-04-11T01:44:58.836Z,2.83
2023-04-11T01:47:27.257Z,2.93
2023-04-11T01:49:55.978Z,3.73
2023-04-11T01:52:24.403Z,3.47
2023-04-11T01:54:52.884Z,2.57
2023-04-11T01:57:21.243Z,2.67
2023-04-11T01:59:51.086Z,3.03
2023-04-11T02:02:19.823Z,2.40
2023-04-11T02:04:48.237Z,1.87
2023-04-11T02:07:16.606Z,2.70
2023-04-11T02:09:45.026Z,2.50
2023-04-11T02:12:13.505Z,2.30
2023-04-11T02:14:43.225Z,2.23
2023-04-11T02:17:12.947Z,2.50
2023-04-11T02:19:42.145Z,2.57
2023-04-11T02:22:10.566Z,2.20
2023-04-11T02:24:39.008Z,2.83
2023-04-11T02:27:07.685Z,2.20
2023-04-11T02:29:36.064Z,2.67
2023-04-11T02:32:04.538Z,2.70
2023-04-11T02:34:34.392Z,3.23
2023-04-11T02:37:02.936Z,2.17
2023-04-11T02:39:31.699Z,2.47
2023-04-11T02:42:00.092Z,2.90
2023-04-11T02:44:29.442Z,2.80
2023-04-11T02:46:57.782Z,2.70
2023-04-11T02:49:26.168Z,2.70
2023-04-11T02:51:55.886Z,2.57
2023-04-11T02:54:24.369Z,2.07
2023-04-11T02:56:53.228Z,3.23
2023-04-11T02:59:21.824Z,2.30
2023-04-11T03:01:50.335Z,2.53
2023-04-11T03:04:18.755Z,2.23
2023-04-11T03:06:47.119Z,2.43
2023-04-11T03:09:16.861Z,2.73
2023-04-11T03:11:47.333Z,2.23
2023-04-11T03:14:15.968Z,2.77
2023-04-11T03:16:44.390Z,2.33
2023-04-11T03:19:12.747Z,2.10
2023-04-11T03:21:41.156Z,2.80
2023-04-11T03:24:09.929Z,2.17
2023-04-11T03:26:39.728Z,2.47
2023-04-11T03:29:08.109Z,2.07
2023-04-11T03:31:36.512Z,2.40
2023-04-11T03:34:05.009Z,1.80
2023-04-11T03:36:33.352Z,2.73
2023-04-11T03:39:01.761Z,1.87
2023-04-11T03:41:30.139Z,1.50
2023-04-11T03:43:59.945Z,1.63
2023-04-11T03:46:28.358Z,1.90
2023-04-11T03:48:57.010Z,2.07
2023-04-11T03:51:26.528Z,2.37
2023-04-11T03:53:54.854Z,2.23
2023-04-11T03:56:23.434Z,2.43
2023-04-11T03:58:51.754Z,2.10
2023-04-11T04:01:21.501Z,1.90
2023-04-11T04:03:50.240Z,2.37
2023-04-11T04:06:18.847Z,2.10
2023-04-11T04:08:47.140Z,2.70
2023-04-11T04:11:15.554Z,1.80
2023-04-11T04:13:43.861Z,1.90
2023-04-11T04:16:12.278Z,1.60
2023-04-11T04:18:42.001Z,2.17
2023-04-11T04:21:10.326Z,2.03
2023-04-11T04:23:39.439Z,1.97
2023-04-11T04:26:07.969Z,1.90
2023-04-11T04:28:36.431Z,2.10
2023-04-11T04:31:04.798Z,1.77
2023-04-11T04:33:33.303Z,2.10
2023-04-11T04:36:04.388Z,2.23
2023-04-11T04:38:33.003Z,2.10
2023-04-11T04:41:01.435Z,1.97
2023-04-11T04:43:32.452Z,2.03
2023-04-11T04:46:01.013Z,2.83
2023-04-11T04:48:29.425Z,2.20
2023-04-11T04:50:57.816Z,2.43
2023-04-11T04:53:27.522Z,2.13
2023-04-11T04:55:56.101Z,2.83
2023-04-11T04:58:24.483Z,3.03
2023-04-11T05:00:56.027Z,2.03
2023-04-11T05:03:24.852Z,2.10
2023-04-11T05:05:53.362Z,2.50
2023-04-11T05:08:21.843Z,2.33
2023-04-11T05:10:51.632Z,2.50
2023-04-11T05:13:19.955Z,2.60
2023-04-11T05:15:51.383Z,2.50
2023-04-11T05:18:19.737Z,2.80
2023-04-11T05:20:48.041Z,2.53
2023-04-11T05:23:16.496Z,2.60
2023-04-11T05:25:44.872Z,2.37
2023-04-11T05:28:14.668Z,2.40
2023-04-11T05:30:43.004Z,2.97
2023-04-11T05:33:12.893Z,3.60
2023-04-11T05:35:41.327Z,2.90
2023-04-11T05:38:10.112Z,2.43
2023-04-11T05:40:38.416Z,2.83
2023-04-11T05:43:06.912Z,2.30
2023-04-11T05:45:36.676Z,2.80
2023-04-11T05:48:06.997Z,2.70
2023-04-11T05:50:35.551Z,2.50
2023-04-11T05:53:04.005Z,2.87
2023-04-11T05:55:32.392Z,2.37
2023-04-11T05:58:00.806Z,2.80
2023-04-11T06:00:30.986Z,2.30
2023-04-11T06:03:01.859Z,2.90
2023-04-11T06:05:31.613Z,2.80
2023-04-11T06:08:00.218Z,3.10
2023-04-11T06:10:28.597Z,2.10
2023-04-11T06:12:57.068Z,3.40
2023-04-11T06:15:25.787Z,2.80
2023-04-11T06:17:54.322Z,3.40
2023-04-11T06:20:24.552Z,2.40
2023-04-11T06:22:52.873Z,2.37
2023-04-11T06:25:21.358Z,2.43
2023-04-11T06:27:49.804Z,2.83
2023-04-11T06:30:18.334Z,3.17
2023-04-11T06:32:46.826Z,2.23
2023-04-11T06:35:15.193Z,2.50
2023-04-11T06:37:46.186Z,2.47
2023-04-11T06:40:14.857Z,3.03
2023-04-11T06:42:43.913Z,2.70
2023-04-11T06:45:12.908Z,2.30
2023-04-11T06:47:41.288Z,2.77
2023-04-11T06:50:10.242Z,2.57
2023-04-11T06:52:39.050Z,2.60
2023-04-11T06:55:10.274Z,3.33
2023-04-11T06:57:38.705Z,2.67
2023-04-11T07:00:08.112Z,2.13
2023-04-11T07:02:36.863Z,2.23
2023-04-11T07:05:05.788Z,2.40
2023-04-11T07:07:34.267Z,2.57
2023-04-11T07:10:02.606Z,2.20
2023-04-11T07:12:32.531Z,2.97
2023-04-11T07:15:01.087Z,2.50
2023-04-11T07:17:29.627Z,3.00
2023-04-11T07:19:57.997Z,2.40
2023-04-11T07:22:26.323Z,2.70
2023-04-11T07:24:57.559Z,2.50
2023-04-11T07:27:26.581Z,1.80
2023-04-11T07:29:56.458Z,2.30
2023-04-11T07:32:24.906Z,2.40
2023-04-11T07:34:53.641Z,2.93
2023-04-11T07:37:26.963Z,2.33
2023-04-11T07:39:55.343Z,2.50
2023-04-11T07:42:26.559Z,2.03
2023-04-11T07:44:56.571Z,1.70
2023-04-11T07:47:25.050Z,2.33
2023-04-11T07:49:53.453Z,2.23
2023-04-11T07:52:21.863Z,2.37
2023-04-11T07:54:53.236Z,2.63
2023-04-11T07:57:21.656Z,2.70
2023-04-11T07:59:49.992Z,2.23
2023-04-11T08:02:20.149Z,2.80
2023-04-11T08:04:48.624Z,3.10
2023-04-11T08:07:17.197Z,2.60
2023-04-11T08:09:45.734Z,2.63
2023-04-11T08:12:14.037Z,3.03
2023-04-11T08:14:42.493Z,2.73
2023-04-11T08:17:27.118Z,2.27
2023-04-11T08:20:01.730Z,2.20
2023-04-11T08:22:34.285Z,1.90
2023-04-11T08:25:02.979Z,2.20
2023-04-11T08:27:31.425Z,2.30
2023-04-11T08:30:00.008Z,2.80
2023-04-11T08:32:28.454Z,2.40
2023-04-11T08:34:58.224Z,1.87
2023-04-11T08:37:26.568Z,1.97
2023-04-11T08:39:54.975Z,2.20
2023-04-11T08:42:23.841Z,2.70
2023-04-11T08:44:53.051Z,1.90
2023-04-11T08:47:21.718Z,2.37
2023-04-11T08:49:50.179Z,1.87
2023-04-11T08:52:20.304Z,2.60
2023-04-11T08:54:48.735Z,2.30
2023-04-11T08:57:25.776Z,2.03
2023-04-11T08:59:54.148Z,2.30
2023-04-11T09:02:22.800Z,3.03
2023-04-11T09:04:51.666Z,2.03
2023-04-11T09:07:22.040Z,1.93
2023-04-11T09:09:50.761Z,2.53
2023-04-11T09:12:20.476Z,1.70
2023-04-11T09:14:48.956Z,2.03
2023-04-11T09:17:17.394Z,2.30
2023-04-11T09:19:48.931Z,2.00
2023-04-11T09:22:18.062Z,1.70
2023-04-11T09:24:47.959Z,2.00
2023-04-11T09:27:17.203Z,1.90
2023-04-11T09:29:46.459Z,2.10
2023-04-11T09:32:30.635Z,1.70
2023-04-11T09:35:12.134Z,1.80
2023-04-11T09:37:44.625Z,2.07
2023-04-11T09:40:14.843Z,2.40
2023-04-11T09:42:43.264Z,2.10
2023-04-11T09:45:18.672Z,1.87
2023-04-11T09:47:47.183Z,2.10
2023-04-11T09:50:15.708Z,2.10
2023-04-11T09:52:44.295Z,1.67
2023-04-11T09:55:14.313Z,1.80
2023-04-11T09:57:45.768Z,1.83
2023-04-11T10:00:18.151Z,2.00
2023-04-11T10:02:47.100Z,2.27
2023-04-11T10:05:15.854Z,2.07
2023-04-11T10:07:47.836Z,2.27
2023-04-11T10:10:21.359Z,1.63
2023-04-11T10:12:49.933Z,2.00
2023-04-11T10:15:18.406Z,1.90
2023-04-11T10:18:01.920Z,2.17
2023-04-11T10:20:44.898Z,2.03
2023-04-11T10:23:13.763Z,2.10
2023-04-11T10:25:56.470Z,2.10
2023-04-11T10:28:32.048Z,2.17
2023-04-11T10:31:01.677Z,2.03
2023-04-11T10:33:30.064Z,2.73
2023-04-11T10:35:59.162Z,2.13
2023-04-11T10:38:49.083Z,2.30
2023-04-11T10:41:19.706Z,1.97
2023-04-11T10:43:48.080Z,2.33
2023-04-11T10:46:19.923Z,2.30
2023-04-11T10:49:01.386Z,2.30
2023-04-11T10:51:30.049Z,1.93
2023-04-11T10:53:59.729Z,2.40
2023-04-11T10:56:46.748Z,2.20
2023-04-11T10:59:31.044Z,2.13
2023-04-11T11:02:01.603Z,1.83
2023-04-11T11:04:36.238Z,2.70
2023-04-11T11:07:05.379Z,2.10
2023-04-11T11:09:33.823Z,2.50
2023-04-11T11:12:08.895Z,2.10
2023-04-11T11:14:46.377Z,2.50
2023-04-11T11:17:16.390Z,1.87
2023-04-11T11:19:45.845Z,2.20
2023-04-11T11:22:16.467Z,2.57
2023-04-11T11:24:44.811Z,3.00
2023-04-11T11:27:22.827Z,2.30
2023-04-11T11:29:51.396Z,2.47
2023-04-11T11:32:25.311Z,1.87
2023-04-11T11:34:53.955Z,2.03
2023-04-11T11:37:23.263Z,2.27
2023-04-11T11:39:51.917Z,2.13
2023-04-11T11:42:20.500Z,2.67
2023-04-11T11:44:48.918Z,2.30
2023-04-11T11:47:17.293Z,2.50
2023-04-11T11:49:47.709Z,2.87
2023-04-11T11:52:34.068Z,2.47
2023-04-11T11:55:08.203Z,2.80
2023-04-11T11:57:38.144Z,2.50
2023-04-11T12:00:09.325Z,2.13
2023-04-11T12:02:40.780Z,2.20
2023-04-11T12:05:12.608Z,2.50
2023-04-11T12:07:41.063Z,2.50
2023-04-11T12:10:12.118Z,1.90
2023-04-11T12:12:41.327Z,3.03
2023-04-11T12:15:13.465Z,2.60
2023-04-11T12:17:41.923Z,1.97
2023-04-11T12:20:12.252Z,2.20
2023-04-11T12:22:40.955Z,2.40
2023-04-11T12:25:09.753Z,2.00
2023-04-11T12:27:43.831Z,1.90
2023-04-11T12:30:12.790Z,2.40
2023-04-11T12:32:44.439Z,2.37
2023-04-11T12:35:14.236Z,2.20
2023-04-11T12:37:42.721Z,2.43
2023-04-11T12:40:12.938Z,2.33
2023-04-11T12:42:55.750Z,2.53
2023-04-11T12:45:24.711Z,2.10
2023-04-11T12:47:53.548Z,2.00
2023-04-11T12:50:24.269Z,2.20
2023-04-11T12:52:52.911Z,2.07
2023-04-11T12:55:24.389Z,2.27
2023-04-11T12:57:55.614Z,2.37
2023-04-11T13:00:24.189Z,2.23
2023-04-11T13:02:56.456Z,2.00
2023-04-11T13:05:26.417Z,2.03
2023-04-11T13:07:54.770Z,1.90
2023-04-11T13:10:23.106Z,2.00
2023-04-11T13:12:53.292Z,1.70
2023-04-11T13:15:22.266Z,1.97
2023-04-11T13:17:53.486Z,2.20
2023-04-11T13:20:22.060Z,2.20
2023-04-11T13:22:52.038Z,2.17
2023-04-11T13:25:20.432Z,2.83
2023-04-11T13:27:51.660Z,1.73
2023-04-11T13:30:20.226Z,1.97
2023-04-11T13:32:48.582Z,1.83
2023-04-11T13:35:16.957Z,2.00
2023-04-11T13:37:45.380Z,2.50
2023-04-11T13:40:16.149Z,2.00
2023-04-11T13:42:44.613Z,2.20
2023-04-11T13:45:13.485Z,2.27
2023-04-11T13:47:41.854Z,2.07
2023-04-11T13:50:10.669Z,1.70
2023-04-11T13:52:39.155Z,2.00
2023-04-11T13:55:07.798Z,2.40
2023-04-11T13:57:37.556Z,1.70
2023-04-11T14:00:10.591Z,1.40
2023-04-11T14:02:39.164Z,1.43
2023-04-11T14:05:08.157Z,1.73
2023-04-11T14:07:36.494Z,1.60
2023-04-11T14:10:05.081Z,1.63
2023-04-11T14:12:34.578Z,1.57
2023-04-11T14:15:04.653Z,1.80
2023-04-11T14:17:33.291Z,1.43
2023-04-11T14:20:01.723Z,1.63
2023-04-11T14:22:30.146Z,1.30
2023-04-11T14:24:58.538Z,1.10
2023-04-11T14:27:27.096Z,1.40
2023-04-11T14:29:55.545Z,1.13
2023-04-11T14:32:25.497Z,1.50
2023-04-11T14:34:54.126Z,1.60
2023-04-11T14:37:22.654Z,1.30
2023-04-11T14:39:51.251Z,1.27
2023-04-11T14:42:19.765Z,1.80
2023-04-11T14:44:50.230Z,1.30
2023-04-11T14:47:18.812Z,1.30
2023-04-11T14:49:48.769Z,1.50
2023-04-11T14:52:17.124Z,1.50
2023-04-11T14:54:51.619Z,1.50
2023-04-11T14:57:20.033Z,1.80
2023-04-11T14:59:48.631Z,1.43
2023-04-11T15:02:17.065Z,1.13
2023-04-11T15:04:45.881Z,1.90
2023-04-11T15:07:16.208Z,1.70
2023-04-11T15:09:44.792Z,1.33
2023-04-11T15:12:13.207Z,1.07
2023-04-11T15:14:44.487Z,1.20
2023-04-11T15:17:19.080Z,1.40
2023-04-11T15:19:56.923Z,1.13
2023-04-11T15:22:27.404Z,1.17
2023-04-11T15:24:55.744Z,1.30
2023-04-11T15:27:24.090Z,1.47
2023-04-11T15:29:54.734Z,1.60
2023-04-11T15:32:23.133Z,1.53
2023-04-11T15:34:51.690Z,1.50
2023-04-11T15:37:20.088Z,1.00
2023-04-11T15:39:50.035Z,1.80
2023-04-11T15:42:18.440Z,1.47
2023-04-11T15:44:46.813Z,1.57
2023-04-11T15:47:15.225Z,1.50
2023-04-11T15:49:43.702Z,1.30
2023-04-11T15:52:12.260Z,1.00
2023-04-11T15:54:40.841Z,1.97
2023-04-11T15:57:10.778Z,1.17
2023-04-11T15:59:41.506Z,1.80
2023-04-11T16:02:09.949Z,1.50
2023-04-11T16:04:39.174Z,1.20
2023-04-11T16:07:15.712Z,1.73
2023-04-11T16:09:47.393Z,1.37
2023-04-11T16:12:17.228Z,1.50
2023-04-11T16:14:48.924Z,1.37
2023-04-11T16:17:19.053Z,1.30
2023-04-11T16:19:51.243Z,1.67
2023-04-11T16:22:36.515Z,1.40
2023-04-11T16:25:09.817Z,1.77
2023-04-11T16:27:41.241Z,1.90
2023-04-11T16:30:12.164Z,1.63
2023-04-11T16:32:42.718Z,2.83
2023-04-11T16:35:13.044Z,1.63
2023-04-11T16:37:48.480Z,1.77
2023-04-11T16:40:17.855Z,2.17
2023-04-11T16:42:49.659Z,3.03
2023-04-11T16:45:18.155Z,1.90
2023-04-11T16:47:46.583Z,2.17
2023-04-11T16:50:15.044Z,2.33
2023-04-11T16:52:43.385Z,2.40
2023-04-11T16:55:11.983Z,1.93
2023-04-11T16:57:40.950Z,2.20
2023-04-11T17:00:15.314Z,2.80
2023-04-11T17:02:43.817Z,3.10
2023-04-11T17:05:12.621Z,2.27
2023-04-11T17:07:41.016Z,2.37
2023-04-11T17:10:10.122Z,2.30
2023-04-11T17:12:38.495Z,2.97
2023-04-11T17:15:08.491Z,3.17
2023-04-11T17:17:38.255Z,2.30
2023-04-11T17:20:09.709Z,2.20
2023-04-11T17:22:41.415Z,2.03
2023-04-11T17:25:10.574Z,2.13
2023-04-11T17:27:39.109Z,2.10
2023-04-11T17:30:09.493Z,2.67
2023-04-11T17:32:39.419Z,2.37
2023-04-11T17:35:08.146Z,2.60
2023-04-11T17:37:37.065Z,2.10
2023-04-11T17:40:10.874Z,2.67
2023-04-11T17:42:42.323Z,2.70
2023-04-11T17:45:17.607Z,2.57
2023-04-11T17:47:48.033Z,2.77
2023-04-11T17:50:16.468Z,2.73
2023-04-11T17:52:46.164Z,2.47
2023-04-11T17:55:14.836Z,2.33
2023-04-11T17:57:43.570Z,3.10
2023-04-11T18:00:19.182Z,2.07
2023-04-11T18:02:49.760Z,2.60
2023-04-11T18:05:23.970Z,3.00
2023-04-11T18:07:54.229Z,2.93
2023-04-11T18:10:24.760Z,2.80
2023-04-11T18:12:53.470Z,3.03
2023-04-11T18:15:21.922Z,3.17
2023-04-11T18:17:51.884Z,2.27
2023-04-11T18:20:20.635Z,2.30
2023-04-11T18:22:51.545Z,2.80
2023-04-11T18:25:20.104Z,2.90
2023-04-11T18:27:48.494Z,2.67
2023-04-11T18:30:17.315Z,2.07
2023-04-11T18:32:49.510Z,2.83
2023-04-11T18:35:20.226Z,2.60
2023-04-11T18:37:48.739Z,2.43
2023-04-11T18:40:17.758Z,2.33
2023-04-11T18:42:47.488Z,2.73
2023-04-11T18:45:18.035Z,2.93
2023-04-11T18:47:46.806Z,2.00
2023-04-11T18:50:15.205Z,2.63
2023-04-11T18:52:45.888Z,3.07
2023-04-11T18:55:15.200Z,3.30
2023-04-11T18:57:46.838Z,3.33
2023-04-11T19:00:18.925Z,3.40
2023-04-11T19:02:50.450Z,3.00
2023-04-11T19:05:19.470Z,3.10
2023-04-11T19:07:49.382Z,3.53
2023-04-11T19:10:17.726Z,3.10
2023-04-11T19:12:46.101Z,2.90
2023-04-11T19:15:14.580Z,2.53
2023-04-11T19:17:45.769Z,3.00
2023-04-11T19:20:15.844Z,2.27
2023-04-11T19:22:46.127Z,2.57
2023-04-11T19:25:15.918Z,3.07
2023-04-11T19:27:44.571Z,2.40
2023-04-11T19:30:14.464Z,2.23
2023-04-11T19:32:49.062Z,2.00
2023-04-11T19:35:21.734Z,1.90
2023-04-11T19:37:50.258Z,2.03
2023-04-11T19:40:23.188Z,1.87
2023-04-11T19:42:54.408Z,2.13
2023-04-11T19:45:23.193Z,2.60
2023-04-11T19:47:53.068Z,2.30
2023-04-11T19:50:22.916Z,2.07
2023-04-11T19:52:51.335Z,2.00
2023-04-11T19:55:21.197Z,2.23
2023-04-11T19:57:49.603Z,3.13
2023-04-11T20:00:18.616Z,2.37
2023-04-11T20:02:48.089Z,3.17
2023-04-11T20:05:17.241Z,3.43
2023-04-11T20:07:45.675Z,3.00
2023-04-11T20:10:14.339Z,2.50
2023-04-11T20:12:44.144Z,3.50
2023-04-11T20:15:12.825Z,2.77
2023-04-11T20:17:42.752Z,2.90
2023-04-11T20:20:13.313Z,3.40
2023-04-11T20:22:44.685Z,4.00
2023-04-11T20:25:13.093Z,4.37
2023-04-11T20:27:41.542Z,3.70
2023-04-11T20:30:12.232Z,3.70
2023-04-11T20:32:41.016Z,3.13
2023-04-11T20:35:09.985Z,2.60
2023-04-11T20:37:40.022Z,2.77
2023-04-11T20:40:10.055Z,2.30
2023-04-11T20:42:40.058Z,2.50
2023-04-11T20:45:10.105Z,2.60
2023-04-11T20:47:39.950Z,2.47
2023-04-11T20:50:09.074Z,2.50
2023-04-11T20:52:37.729Z,2.27
2023-04-11T20:55:06.412Z,2.37
2023-04-11T20:57:34.785Z,2.67
2023-04-11T21:00:07.036Z,2.53
2023-04-11T21:02:35.821Z,2.47
2023-04-11T21:05:06.211Z,2.63
2023-04-11T21:07:34.670Z,3.00
2023-04-11T21:10:04.545Z,2.77
2023-04-11T21:12:33.005Z,3.07
2023-04-11T21:15:01.897Z,3.37
2023-04-11T21:17:30.279Z,3.17
2023-04-11T21:19:58.717Z,3.53
2023-04-11T21:22:28.466Z,3.33
2023-04-11T21:24:56.853Z,3.60
2023-04-11T21:27:25.311Z,2.80
2023-04-11T21:29:53.686Z,3.30
2023-04-11T21:32:22.103Z,3.73
2023-04-11T21:34:50.799Z,3.73
2023-04-11T21:37:19.172Z,3.80
2023-04-11T21:39:48.883Z,4.60
2023-04-11T21:42:17.343Z,4.57
2023-04-11T21:44:45.751Z,5.07
2023-04-11T21:47:14.136Z,6.10
2023-04-11T21:49:42.976Z,5.13
2023-04-11T21:52:11.410Z,5.23
2023-04-11T21:54:40.278Z,4.60
2023-04-11T21:57:10.175Z,4.53
2023-04-11T21:59:39.205Z,4.67
2023-04-11T22:02:07.917Z,4.63
2023-04-11T22:04:47.547Z,4.70
2023-04-11T22:07:25.131Z,4.60
2023-04-11T22:09:58.239Z,4.47
2023-04-11T22:12:28.547Z,4.50
2023-04-11T22:14:57.211Z,4.43
2023-04-11T22:17:25.945Z,3.93
2023-04-11T22:19:58.198Z,3.43
2023-04-11T22:22:28.987Z,3.00
2023-04-11T22:24:59.282Z,3.60
2023-04-11T22:27:29.441Z,3.43
2023-04-11T22:29:57.878Z,3.03
2023-04-11T22:32:26.517Z,2.63
2023-04-11T22:34:54.907Z,2.53
2023-04-11T22:37:23.344Z,3.20
2023-04-11T22:39:51.804Z,3.33
2023-04-11T22:42:20.098Z,2.97
2023-04-11T22:44:49.817Z,2.57
2023-04-11T22:47:21.930Z,2.70
2023-04-11T22:49:50.559Z,3.37
2023-04-11T22:52:22.684Z,2.80
2023-04-11T22:54:51.098Z,2.47
2023-04-11T22:57:19.607Z,2.23
2023-04-11T22:59:48.009Z,2.40
2023-04-11T23:02:18.382Z,2.70
2023-04-11T23:04:47.702Z,3.13
2023-04-11T23:07:16.999Z,2.77
2023-04-11T23:09:47.224Z,2.77
2023-04-11T23:12:15.746Z,2.70
2023-04-11T23:14:44.070Z,3.40
2023-04-11T23:17:13.446Z,3.67
2023-04-11T23:19:43.327Z,3.80
2023-04-11T23:22:11.736Z,3.73
2023-04-11T23:24:40.249Z,4.47
2023-04-11T23:27:08.648Z,4.30
2023-04-11T23:29:37.172Z,4.70
2023-04-11T23:32:05.533Z,5.30
2023-04-11T23:34:33.956Z,5.07
2023-04-11T23:37:06.306Z,5.63
2023-04-11T23:39:34.720Z,6.00
2023-04-11T23:42:03.169Z,6.03
2023-04-11T23:44:31.523Z,6.20
2023-04-11T23:47:00.092Z,6.33
2023-04-11T23:49:28.501Z,5.80
2023-04-11T23:52:00.044Z,5.23
2023-04-11T23:54:30.493Z,4.97
2023-04-11T23:56:59.117Z,5.20
2023-04-11T23:59:27.461Z,5.33
